sensor_id;sensor_type;location;lat;lon;timestamp;P1;durP1;ratioP1;P2;durP2;ratioP2
48777;SDS011;34578;0.000;0.000;2024-03-23T00:58:02;5.20;;;1.95;;
48777;SDS011;34578;0.000;0.000;2024-03-23T01:03:02;4.47;;;2.15;;
48777;SDS011;34578;0.000;0.000;2024-03-23T01:08:03;2.13;;;1.67;;
48777;SDS011;34578;0.000;0.000;2024-03-23T01:13:03;2.70;;;1.70;;
48777;SDS011;34578;0.000;0.000;2024-03-23T01:18:04;3.58;;;2.05;;
48777;SDS011;34578;0.000;0.000;2024-03-23T01:23:04;5.25;;;2.55;;
48777;SDS011;34578;0.000;0.000;2024-03-23T01:28:05;2.47;;;2.00;;
48777;SDS011;34578;0.000;0.000;2024-03-23T01:33:08;3.65;;;1.83;;
48777;SDS011;34578;0.000;0.000;2024-03-23T01:38:08;2.65;;;1.92;;
48777;SDS011;34578;0.000;0.000;2024-03-23T01:43:09;3.27;;;1.60;;
48777;SDS011;34578;0.000;0.000;2024-03-23T01:48:09;2.90;;;1.73;;
48777;SDS011;34578;0.000;0.000;2024-03-23T01:53:12;3.45;;;1.77;;
48777;SDS011;34578;0.000;0.000;2024-03-23T01:58:17;3.80;;;1.98;;
48777;SDS011;34578;0.000;0.000;2024-03-23T02:03:27;2.63;;;2.00;;
48777;SDS011;34578;0.000;0.000;2024-03-23T02:08:28;3.85;;;2.03;;
48777;SDS011;34578;0.000;0.000;2024-03-23T02:13:30;3.78;;;2.38;;
48777;SDS011;34578;0.000;0.000;2024-03-23T02:18:32;2.85;;;1.67;;
48777;SDS011;34578;0.000;0.000;2024-03-23T02:23:33;3.15;;;1.80;;
48777;SDS011;34578;0.000;0.000;2024-03-23T02:28:33;2.87;;;1.60;;
48777;SDS011;34578;0.000;0.000;2024-03-23T02:33:33;3.43;;;2.27;;
48777;SDS011;34578;0.000;0.000;2024-03-23T02:38:38;2.95;;;1.65;;
48777;SDS011;34578;0.000;0.000;2024-03-23T02:43:38;7.47;;;2.57;;
48777;SDS011;34578;0.000;0.000;2024-03-23T02:48:38;3.60;;;2.23;;
48777;SDS011;34578;0.000;0.000;2024-03-23T02:53:39;1.60;;;1.40;;
48777;SDS011;34578;0.000;0.000;2024-03-23T02:58:39;3.13;;;2.07;;
48777;SDS011;34578;0.000;0.000;2024-03-23T03:03:39;3.70;;;2.00;;
48777;SDS011;34578;0.000;0.000;2024-03-23T03:08:40;4.03;;;1.60;;
48777;SDS011;34578;0.000;0.000;2024-03-23T03:13:40;2.37;;;1.97;;
48777;SDS011;34578;0.000;0.000;2024-03-23T03:18:40;3.13;;;1.73;;
48777;SDS011;34578;0.000;0.000;2024-03-23T03:23:41;2.88;;;2.00;;
48777;SDS011;34578;0.000;0.000;2024-03-23T03:28:42;3.33;;;1.48;;
48777;SDS011;34578;0.000;0.000;2024-03-23T03:33:49;2.90;;;1.73;;
48777;SDS011;34578;0.000;0.000;2024-03-23T03:38:51;1.92;;;1.50;;
48777;SDS011;34578;0.000;0.000;2024-03-23T03:43:51;2.10;;;1.33;;
48777;SDS011;34578;0.000;0.000;2024-03-23T03:48:51;1.97;;;1.37;;
48777;SDS011;34578;0.000;0.000;2024-03-23T03:53:52;2.70;;;1.73;;
48777;SDS011;34578;0.000;0.000;2024-03-23T03:58:52;1.60;;;1.20;;
48777;SDS011;34578;0.000;0.000;2024-03-23T04:03:52;2.00;;;1.40;;
48777;SDS011;34578;0.000;0.000;2024-03-23T04:08:53;1.83;;;1.57;;
48777;SDS011;34578;0.000;0.000;2024-03-23T04:13:53;2.77;;;1.83;;
48777;SDS011;34578;0.000;0.000;2024-03-23T04:18:53;2.70;;;2.03;;
48777;SDS011;34578;0.000;0.000;2024-03-23T04:23:54;1.90;;;1.50;;
48777;SDS011;34578;0.000;0.000;2024-03-23T04:28:54;2.97;;;1.60;;
48777;SDS011;34578;0.000;0.000;2024-03-23T04:33:55;1.63;;;1.27;;
48777;SDS011;34578;0.000;0.000;2024-03-23T04:38:59;1.77;;;1.40;;
48777;SDS011;34578;0.000;0.000;2024-03-23T04:44:00;2.30;;;1.70;;
48777;SDS011;34578;0.000;0.000;2024-03-23T04:49:01;1.93;;;1.60;;
48777;SDS011;34578;0.000;0.000;2024-03-23T04:54:01;2.63;;;1.57;;
48777;SDS011;34578;0.000;0.000;2024-03-23T04:59:05;2.95;;;2.15;;
48777;SDS011;34578;0.000;0.000;2024-03-23T05:04:05;3.00;;;1.70;;
48777;SDS011;34578;0.000;0.000;2024-03-23T05:09:06;2.38;;;1.58;;
48777;SDS011;34578;0.000;0.000;2024-03-23T05:14:07;2.72;;;1.75;;
48777;SDS011;34578;0.000;0.000;2024-03-23T05:19:07;2.97;;;1.40;;
48777;SDS011;34578;0.000;0.000;2024-03-23T05:24:10;1.85;;;1.35;;
48777;SDS011;34578;0.000;0.000;2024-03-23T05:29:11;4.05;;;2.85;;
48777;SDS011;34578;0.000;0.000;2024-03-23T05:34:13;2.05;;;1.42;;
48777;SDS011;34578;0.000;0.000;2024-03-23T05:39:13;2.70;;;1.50;;
48777;SDS011;34578;0.000;0.000;2024-03-23T05:44:16;1.77;;;1.20;;
48777;SDS011;34578;0.000;0.000;2024-03-23T05:49:17;2.58;;;1.80;;
48777;SDS011;34578;0.000;0.000;2024-03-23T05:54:18;1.30;;;1.20;;
48777;SDS011;34578;0.000;0.000;2024-03-23T05:59:18;4.50;;;1.97;;
48777;SDS011;34578;0.000;0.000;2024-03-23T06:04:18;1.50;;;1.40;;
48777;SDS011;34578;0.000;0.000;2024-03-23T06:09:19;2.42;;;1.30;;
48777;SDS011;34578;0.000;0.000;2024-03-23T06:14:20;3.75;;;1.85;;
48777;SDS011;34578;0.000;0.000;2024-03-23T06:19:22;2.53;;;1.45;;
48777;SDS011;34578;0.000;0.000;2024-03-23T06:24:23;3.33;;;1.27;;
48777;SDS011;34578;0.000;0.000;2024-03-23T06:29:24;3.00;;;1.70;;
48777;SDS011;34578;0.000;0.000;2024-03-23T06:34:24;2.83;;;1.40;;
48777;SDS011;34578;0.000;0.000;2024-03-23T06:39:25;3.05;;;1.45;;
48777;SDS011;34578;0.000;0.000;2024-03-23T06:44:25;1.93;;;1.30;;
48777;SDS011;34578;0.000;0.000;2024-03-23T06:49:26;1.55;;;1.27;;
48777;SDS011;34578;0.000;0.000;2024-03-23T06:54:26;1.80;;;1.13;;
48777;SDS011;34578;0.000;0.000;2024-03-23T06:59:29;5.15;;;1.35;;
48777;SDS011;34578;0.000;0.000;2024-03-23T07:04:29;2.93;;;1.33;;
48777;SDS011;34578;0.000;0.000;2024-03-23T07:09:30;1.50;;;1.33;;
48777;SDS011;34578;0.000;0.000;2024-03-23T07:14:30;1.87;;;1.33;;
48777;SDS011;34578;0.000;0.000;2024-03-23T07:19:30;1.23;;;1.10;;
48777;SDS011;34578;0.000;0.000;2024-03-23T07:24:31;4.37;;;1.57;;
48777;SDS011;34578;0.000;0.000;2024-03-23T07:29:32;4.28;;;1.42;;
48777;SDS011;34578;0.000;0.000;2024-03-23T07:34:33;2.50;;;1.40;;
48777;SDS011;34578;0.000;0.000;2024-03-23T07:39:33;3.40;;;1.87;;
48777;SDS011;34578;0.000;0.000;2024-03-23T07:44:34;7.28;;;1.45;;
48777;SDS011;34578;0.000;0.000;2024-03-23T07:49:34;2.28;;;1.23;;
48777;SDS011;34578;0.000;0.000;2024-03-23T07:54:35;2.33;;;0.97;;
48777;SDS011;34578;0.000;0.000;2024-03-23T07:59:35;2.83;;;1.40;;
48777;SDS011;34578;0.000;0.000;2024-03-23T08:04:35;3.43;;;1.00;;
48777;SDS011;34578;0.000;0.000;2024-03-23T08:09:36;1.50;;;0.93;;
48777;SDS011;34578;0.000;0.000;2024-03-23T08:14:36;2.03;;;0.80;;
48777;SDS011;34578;0.000;0.000;2024-03-23T08:19:36;1.33;;;1.10;;
48777;SDS011;34578;0.000;0.000;2024-03-23T08:24:37;1.77;;;1.00;;
48777;SDS011;34578;0.000;0.000;2024-03-23T08:29:37;1.60;;;1.07;;
48777;SDS011;34578;0.000;0.000;2024-03-23T08:34:37;1.43;;;1.10;;
48777;SDS011;34578;0.000;0.000;2024-03-23T08:39:38;3.43;;;1.13;;
48777;SDS011;34578;0.000;0.000;2024-03-23T08:44:38;1.60;;;0.93;;
48777;SDS011;34578;0.000;0.000;2024-03-23T08:49:39;2.07;;;1.33;;
48777;SDS011;34578;0.000;0.000;2024-03-23T08:54:39;2.30;;;0.90;;
48777;SDS011;34578;0.000;0.000;2024-03-23T08:59:39;6.17;;;1.27;;
48777;SDS011;34578;0.000;0.000;2024-03-23T09:04:40;6.10;;;1.00;;
48777;SDS011;34578;0.000;0.000;2024-03-23T09:09:40;1.65;;;0.98;;
48777;SDS011;34578;0.000;0.000;2024-03-23T09:14:40;1.50;;;0.90;;
48777;SDS011;34578;0.000;0.000;2024-03-23T09:19:41;1.67;;;0.90;;
48777;SDS011;34578;0.000;0.000;2024-03-23T09:24:41;3.20;;;0.80;;
48777;SDS011;34578;0.000;0.000;2024-03-23T09:29:42;1.02;;;0.70;;
48777;SDS011;34578;0.000;0.000;2024-03-23T09:34:42;1.30;;;0.70;;
48777;SDS011;34578;0.000;0.000;2024-03-23T09:39:42;2.03;;;1.00;;
48777;SDS011;34578;0.000;0.000;2024-03-23T09:44:43;2.65;;;1.20;;
48777;SDS011;34578;0.000;0.000;2024-03-23T09:49:44;1.38;;;0.70;;
48777;SDS011;34578;0.000;0.000;2024-03-23T09:54:45;1.63;;;1.00;;
48777;SDS011;34578;0.000;0.000;2024-03-23T09:59:45;2.10;;;0.85;;
48777;SDS011;34578;0.000;0.000;2024-03-23T10:04:46;7.00;;;1.40;;
48777;SDS011;34578;0.000;0.000;2024-03-23T10:09:46;4.17;;;0.90;;
48777;SDS011;34578;0.000;0.000;2024-03-23T10:14:46;2.53;;;1.03;;
48777;SDS011;34578;0.000;0.000;2024-03-23T10:19:47;4.30;;;1.02;;
48777;SDS011;34578;0.000;0.000;2024-03-23T10:24:49;2.42;;;1.25;;
48777;SDS011;34578;0.000;0.000;2024-03-23T10:29:50;4.38;;;1.35;;
48777;SDS011;34578;0.000;0.000;2024-03-23T10:34:50;2.55;;;1.20;;
48777;SDS011;34578;0.000;0.000;2024-03-23T10:39:51;5.40;;;1.40;;
48777;SDS011;34578;0.000;0.000;2024-03-23T10:44:51;4.75;;;1.33;;
48777;SDS011;34578;0.000;0.000;2024-03-23T10:49:53;9.48;;;1.77;;
48777;SDS011;34578;0.000;0.000;2024-03-23T10:54:54;7.70;;;1.30;;
48777;SDS011;34578;0.000;0.000;2024-03-23T10:59:56;3.92;;;1.52;;
48777;SDS011;34578;0.000;0.000;2024-03-23T11:04:57;3.60;;;1.20;;
48777;SDS011;34578;0.000;0.000;2024-03-23T11:09:58;2.08;;;1.00;;
48777;SDS011;34578;0.000;0.000;2024-03-23T11:15:06;2.25;;;0.85;;
48777;SDS011;34578;0.000;0.000;2024-03-23T11:20:11;2.33;;;1.58;;
48777;SDS011;34578;0.000;0.000;2024-03-23T11:25:24;2.77;;;0.87;;
48777;SDS011;34578;0.000;0.000;2024-03-23T11:30:26;1.83;;;0.73;;
48777;SDS011;34578;0.000;0.000;2024-03-23T11:35:31;2.08;;;0.98;;
48777;SDS011;34578;0.000;0.000;2024-03-23T11:40:33;2.28;;;0.68;;
48777;SDS011;34578;0.000;0.000;2024-03-23T11:45:35;1.45;;;0.80;;
48777;SDS011;34578;0.000;0.000;2024-03-23T11:50:37;1.52;;;0.65;;
48777;SDS011;34578;0.000;0.000;2024-03-23T11:55:47;2.50;;;0.80;;
48777;SDS011;34578;0.000;0.000;2024-03-23T12:00:54;1.85;;;0.75;;
48777;SDS011;34578;0.000;0.000;2024-03-23T12:05:58;2.25;;;0.70;;
48777;SDS011;34578;0.000;0.000;2024-03-23T12:16:17;6.68;;;1.13;;
48777;SDS011;34578;0.000;0.000;2024-03-23T12:21:21;2.83;;;0.85;;
48777;SDS011;34578;0.000;0.000;2024-03-23T12:26:22;2.42;;;0.65;;
48777;SDS011;34578;0.000;0.000;2024-03-23T12:31:23;3.28;;;0.63;;
48777;SDS011;34578;0.000;0.000;2024-03-23T12:36:24;3.25;;;0.57;;
48777;SDS011;34578;0.000;0.000;2024-03-23T12:41:25;2.60;;;1.07;;
48777;SDS011;34578;0.000;0.000;2024-03-23T12:46:25;2.80;;;0.80;;
48777;SDS011;34578;0.000;0.000;2024-03-23T12:51:25;3.63;;;1.20;;
48777;SDS011;34578;0.000;0.000;2024-03-23T12:56:26;7.00;;;1.57;;
48777;SDS011;34578;0.000;0.000;2024-03-23T13:01:28;3.60;;;1.40;;
48777;SDS011;34578;0.000;0.000;2024-03-23T13:06:28;13.63;;;1.37;;
48777;SDS011;34578;0.000;0.000;2024-03-23T13:11:33;2.33;;;0.80;;
48777;SDS011;34578;0.000;0.000;2024-03-23T13:16:34;3.27;;;0.70;;
48777;SDS011;34578;0.000;0.000;2024-03-23T13:21:34;2.03;;;0.70;;
48777;SDS011;34578;0.000;0.000;2024-03-23T13:26:35;2.43;;;1.07;;
48777;SDS011;34578;0.000;0.000;2024-03-23T13:31:35;4.60;;;0.90;;
48777;SDS011;34578;0.000;0.000;2024-03-23T13:36:35;1.80;;;0.80;;
48777;SDS011;34578;0.000;0.000;2024-03-23T13:46:45;2.15;;;1.05;;
48777;SDS011;34578;0.000;0.000;2024-03-23T13:51:47;2.00;;;0.70;;
48777;SDS011;34578;0.000;0.000;2024-03-23T13:56:51;0.85;;;0.52;;
48777;SDS011;34578;0.000;0.000;2024-03-23T14:01:52;2.15;;;0.80;;
48777;SDS011;34578;0.000;0.000;2024-03-23T14:06:52;4.03;;;1.00;;
48777;SDS011;34578;0.000;0.000;2024-03-23T14:11:53;3.13;;;1.00;;
48777;SDS011;34578;0.000;0.000;2024-03-23T14:16:53;2.67;;;0.80;;
48777;SDS011;34578;0.000;0.000;2024-03-23T14:21:53;3.57;;;0.83;;
48777;SDS011;34578;0.000;0.000;2024-03-23T14:26:54;2.63;;;0.90;;
48777;SDS011;34578;0.000;0.000;2024-03-23T14:31:54;2.07;;;0.70;;
48777;SDS011;34578;0.000;0.000;2024-03-23T14:36:54;5.27;;;1.87;;
48777;SDS011;34578;0.000;0.000;2024-03-23T14:41:55;8.57;;;1.13;;
48777;SDS011;34578;0.000;0.000;2024-03-23T14:46:56;6.60;;;1.73;;
48777;SDS011;34578;0.000;0.000;2024-03-23T14:51:58;3.75;;;1.63;;
48777;SDS011;34578;0.000;0.000;2024-03-23T14:56:59;1.80;;;0.70;;
48777;SDS011;34578;0.000;0.000;2024-03-23T15:01:59;5.40;;;0.93;;
48777;SDS011;34578;0.000;0.000;2024-03-23T15:07:00;3.38;;;0.93;;
48777;SDS011;34578;0.000;0.000;2024-03-23T15:12:00;6.03;;;1.00;;
48777;SDS011;34578;0.000;0.000;2024-03-23T15:17:01;2.90;;;0.60;;
48777;SDS011;34578;0.000;0.000;2024-03-23T15:22:04;3.08;;;0.80;;
48777;SDS011;34578;0.000;0.000;2024-03-23T15:27:05;2.77;;;0.70;;
48777;SDS011;34578;0.000;0.000;2024-03-23T15:32:07;1.88;;;0.77;;
48777;SDS011;34578;0.000;0.000;2024-03-23T15:37:08;1.97;;;0.90;;
48777;SDS011;34578;0.000;0.000;2024-03-23T15:42:08;2.10;;;0.67;;
48777;SDS011;34578;0.000;0.000;2024-03-23T15:47:08;3.67;;;1.10;;
48777;SDS011;34578;0.000;0.000;2024-03-23T15:52:09;1.17;;;0.50;;
48777;SDS011;34578;0.000;0.000;2024-03-23T15:57:09;2.43;;;0.70;;
48777;SDS011;34578;0.000;0.000;2024-03-23T16:02:09;4.77;;;0.80;;
48777;SDS011;34578;0.000;0.000;2024-03-23T16:07:10;2.07;;;0.93;;
48777;SDS011;34578;0.000;0.000;2024-03-23T16:12:10;3.42;;;1.20;;
48777;SDS011;34578;0.000;0.000;2024-03-23T16:17:11;1.83;;;0.47;;
48777;SDS011;34578;0.000;0.000;2024-03-23T16:22:11;3.33;;;0.90;;
48777;SDS011;34578;0.000;0.000;2024-03-23T16:27:11;12.77;;;2.10;;
48777;SDS011;34578;0.000;0.000;2024-03-23T16:32:12;8.27;;;1.17;;
48777;SDS011;34578;0.000;0.000;2024-03-23T16:37:12;4.57;;;0.97;;
48777;SDS011;34578;0.000;0.000;2024-03-23T16:42:12;5.97;;;0.70;;
48777;SDS011;34578;0.000;0.000;2024-03-23T16:47:13;5.67;;;0.90;;
48777;SDS011;34578;0.000;0.000;2024-03-23T16:52:13;6.20;;;0.90;;
48777;SDS011;34578;0.000;0.000;2024-03-23T16:57:13;3.27;;;0.70;;
48777;SDS011;34578;0.000;0.000;2024-03-23T17:02:17;1.73;;;0.70;;
48777;SDS011;34578;0.000;0.000;2024-03-23T17:07:17;1.87;;;0.50;;
48777;SDS011;34578;0.000;0.000;2024-03-23T17:12:17;1.23;;;0.70;;
48777;SDS011;34578;0.000;0.000;2024-03-23T17:17:18;3.13;;;0.73;;
48777;SDS011;34578;0.000;0.000;2024-03-23T17:22:18;1.90;;;0.47;;
48777;SDS011;34578;0.000;0.000;2024-03-23T17:27:18;1.00;;;0.47;;
48777;SDS011;34578;0.000;0.000;2024-03-23T17:32:19;1.23;;;0.43;;
48777;SDS011;34578;0.000;0.000;2024-03-23T17:37:20;0.95;;;0.50;;
48777;SDS011;34578;0.000;0.000;2024-03-23T17:42:20;1.93;;;0.50;;
48777;SDS011;34578;0.000;0.000;2024-03-23T17:47:20;1.40;;;0.40;;
48777;SDS011;34578;0.000;0.000;2024-03-23T17:52:21;2.47;;;0.50;;
48777;SDS011;34578;0.000;0.000;2024-03-23T17:57:21;0.70;;;0.40;;
48777;SDS011;34578;0.000;0.000;2024-03-23T18:02:22;0.98;;;0.40;;
48777;SDS011;34578;0.000;0.000;2024-03-23T18:07:22;1.00;;;0.50;;
48777;SDS011;34578;0.000;0.000;2024-03-23T18:12:23;1.63;;;0.50;;
48777;SDS011;34578;0.000;0.000;2024-03-23T18:17:24;1.27;;;0.57;;
48777;SDS011;34578;0.000;0.000;2024-03-23T18:22:24;1.13;;;0.50;;
48777;SDS011;34578;0.000;0.000;2024-03-23T18:27:25;0.50;;;0.33;;
48777;SDS011;34578;0.000;0.000;2024-03-23T18:32:25;1.03;;;0.50;;
48777;SDS011;34578;0.000;0.000;2024-03-23T18:37:25;0.60;;;0.40;;
48777;SDS011;34578;0.000;0.000;2024-03-23T18:42:25;2.50;;;1.43;;
48777;SDS011;34578;0.000;0.000;2024-03-23T18:47:26;2.10;;;0.53;;
48777;SDS011;34578;0.000;0.000;2024-03-23T18:52:26;1.13;;;0.47;;
48777;SDS011;34578;0.000;0.000;2024-03-23T18:57:27;0.43;;;0.40;;
48777;SDS011;34578;0.000;0.000;2024-03-23T19:02:27;0.70;;;0.40;;
48777;SDS011;34578;0.000;0.000;2024-03-23T19:07:29;1.20;;;0.40;;
48777;SDS011;34578;0.000;0.000;2024-03-23T19:12:30;1.35;;;0.50;;
48777;SDS011;34578;0.000;0.000;2024-03-23T19:17:31;1.55;;;0.52;;
48777;SDS011;34578;0.000;0.000;2024-03-23T19:22:33;0.98;;;0.40;;
48777;SDS011;34578;0.000;0.000;2024-03-23T19:27:33;1.67;;;0.60;;
48777;SDS011;34578;0.000;0.000;2024-03-23T19:32:36;1.92;;;0.60;;
48777;SDS011;34578;0.000;0.000;2024-03-23T19:37:37;0.93;;;0.60;;
48777;SDS011;34578;0.000;0.000;2024-03-23T19:42:39;1.10;;;0.45;;
48777;SDS011;34578;0.000;0.000;2024-03-23T19:47:39;1.07;;;0.70;;
48777;SDS011;34578;0.000;0.000;2024-03-23T19:52:39;2.67;;;0.60;;
48777;SDS011;34578;0.000;0.000;2024-03-23T19:57:40;1.17;;;0.40;;
48777;SDS011;34578;0.000;0.000;2024-03-23T20:02:44;1.30;;;0.70;;
48777;SDS011;34578;0.000;0.000;2024-03-23T20:07:45;0.85;;;0.50;;
48777;SDS011;34578;0.000;0.000;2024-03-23T20:12:45;1.07;;;0.50;;
48777;SDS011;34578;0.000;0.000;2024-03-23T20:17:45;1.03;;;0.37;;
48777;SDS011;34578;0.000;0.000;2024-03-23T20:22:50;1.13;;;0.50;;
48777;SDS011;34578;0.000;0.000;2024-03-23T20:27:50;1.10;;;0.50;;
48777;SDS011;34578;0.000;0.000;2024-03-23T20:32:50;0.77;;;0.47;;
48777;SDS011;34578;0.000;0.000;2024-03-23T20:37:51;0.67;;;0.27;;
48777;SDS011;34578;0.000;0.000;2024-03-23T20:42:52;0.70;;;0.32;;
48777;SDS011;34578;0.000;0.000;2024-03-23T20:47:53;1.08;;;0.32;;
48777;SDS011;34578;0.000;0.000;2024-03-23T20:52:54;1.07;;;0.43;;
48777;SDS011;34578;0.000;0.000;2024-03-23T20:57:54;0.75;;;0.40;;
48777;SDS011;34578;0.000;0.000;2024-03-23T21:02:54;1.17;;;0.47;;
48777;SDS011;34578;0.000;0.000;2024-03-23T21:07:55;0.53;;;0.20;;
48777;SDS011;34578;0.000;0.000;2024-03-23T21:12:56;0.32;;;0.17;;
48777;SDS011;34578;0.000;0.000;2024-03-23T21:17:56;0.50;;;0.27;;
48777;SDS011;34578;0.000;0.000;2024-03-23T21:22:57;0.30;;;0.30;;
48777;SDS011;34578;0.000;0.000;2024-03-23T21:27:57;0.67;;;0.67;;
48777;SDS011;34578;0.000;0.000;2024-03-23T21:32:57;1.00;;;0.27;;
48777;SDS011;34578;0.000;0.000;2024-03-23T21:37:58;0.10;;;0.10;;
48777;SDS011;34578;0.000;0.000;2024-03-23T21:42:58;0.43;;;0.20;;
48777;SDS011;34578;0.000;0.000;2024-03-23T21:47:58;0.50;;;0.20;;
48777;SDS011;34578;0.000;0.000;2024-03-23T21:52:59;0.90;;;0.30;;
48777;SDS011;34578;0.000;0.000;2024-03-23T21:57:59;0.30;;;0.30;;
48777;SDS011;34578;0.000;0.000;2024-03-23T22:02:59;0.90;;;0.32;;
48777;SDS011;34578;0.000;0.000;2024-03-23T22:08:00;0.53;;;0.20;;
48777;SDS011;34578;0.000;0.000;2024-03-23T22:13:00;2.17;;;0.50;;
48777;SDS011;34578;0.000;0.000;2024-03-23T22:18:03;9.95;;;0.40;;
48777;SDS011;34578;0.000;0.000;2024-03-23T22:23:06;3.67;;;0.28;;
48777;SDS011;34578;0.000;0.000;2024-03-23T22:28:08;1.95;;;0.35;;
48777;SDS011;34578;0.000;0.000;2024-03-23T22:33:08;2.70;;;0.40;;
48777;SDS011;34578;0.000;0.000;2024-03-23T22:38:09;0.70;;;0.40;;
48777;SDS011;34578;0.000;0.000;2024-03-23T22:43:09;1.20;;;0.60;;
48777;SDS011;34578;0.000;0.000;2024-03-23T22:48:09;0.87;;;0.43;;
48777;SDS011;34578;0.000;0.000;2024-03-23T22:53:10;1.23;;;0.40;;
48777;SDS011;34578;0.000;0.000;2024-03-23T22:58:10;2.00;;;0.40;;
48777;SDS011;34578;0.000;0.000;2024-03-23T23:03:11;1.65;;;0.40;;
48777;SDS011;34578;0.000;0.000;2024-03-23T23:08:12;1.73;;;0.40;;
48777;SDS011;34578;0.000;0.000;2024-03-23T23:13:13;0.82;;;0.47;;
48777;SDS011;34578;0.000;0.000;2024-03-23T23:18:13;0.90;;;0.50;;
48777;SDS011;34578;0.000;0.000;2024-03-23T23:23:17;1.20;;;0.50;;
48777;SDS011;34578;0.000;0.000;2024-03-23T23:28:18;2.60;;;0.50;;
48777;SDS011;34578;0.000;0.000;2024-03-23T23:33:19;1.67;;;0.47;;
48777;SDS011;34578;0.000;0.000;2024-03-23T23:38:20;1.23;;;0.57;;
48777;SDS011;34578;0.000;0.000;2024-03-23T23:43:22;3.28;;;0.60;;
48777;SDS011;34578;0.000;0.000;2024-03-23T23:48:22;1.73;;;0.40;;
48777;SDS011;34578;0.000;0.000;2024-03-23T23:53:24;0.70;;;0.40;;
48777;SDS011;34578;0.000;0.000;2024-03-23T23:58:25;0.90;;;0.30;;
